Time;durP1;ratioP1;P1;durP2;ratioP2;P2;SDS_P1;SDS_P2;PMS_P1;PMS_P2;Temp;Humidity;BMP_temperature;BMP_pressure;BME280_temperature;BME280_humidity;BME280_pressure;Samples;Min_cycle;Max_cycle;Signal;HPM_P1;HPM_P2
2023/04/22 08:04:44;;;;;;;;;0.00;0.00;;;;;;;;6231476;22;49985;-71
2023/04/22 08:07:09;;;;;;;;;3.00;3.00;;;;;;;;6232353;22;50346;-71
2023/04/22 08:09:35;;;;;;;;;0.00;0.00;;;;;;;;6235121;22;49690;-72
2023/04/22 08:12:01;;;;;;;;;0.00;0.00;;;;;;;;6234726;22;50184;-71
2023/04/22 08:14:27;;;;;;;;;0.00;0.00;;;;;;;;6233303;22;49800;-69
2023/04/22 08:16:52;;;;;;;;;0.00;0.00;;;;;;;;6234600;22;49600;-70
2023/04/22 08:19:18;;;;;;;;;0.00;0.00;;;;;;;;6234353;22;49691;-71
2023/04/22 08:21:43;;;;;;;;;1.00;1.00;;;;;;;;6234586;22;49633;-72
2023/04/22 08:24:08;;;;;;;;;0.00;0.00;;;;;;;;6234897;22;49661;-70
2023/04/22 08:26:35;;;;;;;;;0.00;0.00;;;;;;;;6234833;22;50437;-71
2023/04/22 08:29:00;;;;;;;;;4.50;4.50;;;;;;;;6234826;22;49796;-71
2023/04/22 08:31:25;;;;;;;;;0.00;0.00;;;;;;;;6234997;22;49837;-70
2023/04/22 08:33:50;;;;;;;;;0.00;0.00;;;;;;;;6206804;22;49604;-73
2023/04/22 08:36:15;;;;;;;;;0.00;0.00;;;;;;;;6234699;22;49991;-71
2023/04/22 08:38:41;;;;;;;;;1.00;1.00;;;;;;;;6233923;22;50388;-73
2023/04/22 08:41:06;;;;;;;;;0.75;0.75;;;;;;;;6234055;22;49856;-72
2023/04/22 08:43:31;;;;;;;;;0.00;0.00;;;;;;;;6232289;22;49757;-72
2023/04/22 08:45:56;;;;;;;;;0.00;0.00;;;;;;;;6234976;22;49867;-72
2023/04/22 08:48:22;;;;;;;;;0.00;0.00;;;;;;;;6233938;22;50554;-72
2023/04/22 08:50:48;;;;;;;;;0.00;0.00;;;;;;;;6234487;22;49630;-72
2023/04/22 08:53:13;;;;;;;;;4.00;4.00;;;;;;;;6234443;22;49808;-72
2023/04/22 08:55:40;;;;;;;;;0.00;0.00;;;;;;;;6234183;22;49930;-72
2023/04/22 08:58:06;;;;;;;;;0.00;0.00;;;;;;;;6207094;22;52545;-70
2023/04/22 09:00:33;;;;;;;;;0.00;0.00;;;;;;;;6233754;22;49957;-71
2023/04/22 09:02:59;;;;;;;;;0.00;0.00;;;;;;;;6233613;22;49555;-70
2023/04/22 09:05:26;;;;;;;;;0.00;0.00;;;;;;;;6234037;22;49988;-71
2023/04/22 09:07:52;;;;;;;;;1.00;1.00;;;;;;;;6233980;22;49948;-73
2023/04/22 09:10:17;;;;;;;;;4.00;4.00;;;;;;;;6234401;22;49912;-72
2023/04/22 09:12:42;;;;;;;;;0.00;0.00;;;;;;;;6234757;22;49915;-71
2023/04/22 09:15:08;;;;;;;;;0.00;0.00;;;;;;;;6234897;22;49561;-71
2023/04/22 09:17:36;;;;;;;;;0.00;0.00;;;;;;;;6234217;22;50665;-71
2023/04/22 09:20:03;;;;;;;;;0.00;0.00;;;;;;;;6234136;22;49733;-70
2023/04/22 09:22:35;;;;;;;;;0.00;0.00;;;;;;;;6234556;22;49862;-71
2023/04/22 09:25:02;;;;;;;;;0.00;0.00;;;;;;;;6235277;22;50142;-70
2023/04/22 09:27:28;;;;;;;;;0.00;0.00;;;;;;;;6234085;22;49848;-71
2023/04/22 09:29:53;;;;;;;;;0.00;0.00;;;;;;;;6234512;22;49688;-70
2023/04/22 09:32:18;;;;;;;;;0.00;0.00;;;;;;;;6233344;22;49574;-70
2023/04/22 09:34:51;;;;;;;;;0.00;0.00;;;;;;;;6234993;22;49938;-70
2023/04/22 09:37:23;;;;;;;;;0.00;0.00;;;;;;;;6233708;22;49919;-71
2023/04/22 09:39:48;;;;;;;;;0.00;0.00;;;;;;;;6233540;22;49875;-72
2023/04/22 09:42:14;;;;;;;;;0.25;0.25;;;;;;;;6232770;22;49673;-71
2023/04/22 09:44:39;;;;;;;;;0.00;0.00;;;;;;;;6207047;22;50021;-72
2023/04/22 09:47:05;;;;;;;;;0.00;0.00;;;;;;;;6233839;22;49949;-71
2023/04/22 09:49:35;;;;;;;;;1.00;1.00;;;;;;;;6234582;22;49989;-73
2023/04/22 09:52:00;;;;;;;;;0.00;0.00;;;;;;;;6234426;22;49699;-72
2023/04/22 09:54:25;;;;;;;;;0.00;0.00;;;;;;;;6233685;22;49599;-69
2023/04/22 09:56:51;;;;;;;;;0.00;0.00;;;;;;;;6231275;22;50682;-72
2023/04/22 09:59:16;;;;;;;;;0.00;0.00;;;;;;;;6231610;22;49602;-70
2023/04/22 10:01:41;;;;;;;;;0.00;0.00;;;;;;;;6232019;22;49900;-70
2023/04/22 10:04:08;;;;;;;;;0.00;0.00;;;;;;;;6231956;22;50200;-71
2023/04/22 10:06:34;;;;;;;;;32.75;32.75;;;;;;;;6231218;22;50725;-71
2023/04/22 10:09:00;;;;;;;;;1.00;1.00;;;;;;;;6231417;22;49638;-71
2023/04/22 10:11:25;;;;;;;;;0.00;0.00;;;;;;;;6232396;22;49658;-73
2023/04/22 10:13:50;;;;;;;;;0.00;0.00;;;;;;;;6231876;22;49779;-72
2023/04/22 10:16:17;;;;;;;;;0.00;0.00;;;;;;;;6232132;22;50451;-78
2023/04/22 10:18:44;;;;;;;;;0.00;0.00;;;;;;;;6233219;22;49635;-78
2023/04/22 10:21:10;;;;;;;;;1.00;1.00;;;;;;;;6233261;22;50038;-75
2023/04/22 10:23:35;;;;;;;;;0.00;0.00;;;;;;;;6234060;22;49695;-74
2023/04/22 10:26:00;;;;;;;;;9.00;9.00;;;;;;;;6232528;22;50448;-76
2023/04/22 10:28:27;;;;;;;;;0.00;0.00;;;;;;;;6233456;22;49979;-77
2023/04/22 10:30:52;;;;;;;;;1.00;1.00;;;;;;;;6231703;22;49651;-76
2023/04/22 10:33:20;;;;;;;;;0.50;0.50;;;;;;;;6232109;22;49555;-77
2023/04/22 10:36:04;;;;;;;;;0.00;0.00;;;;;;;;6232321;22;49890;-77
2023/04/22 10:38:35;;;;;;;;;0.00;0.00;;;;;;;;6234025;22;49958;-77
2023/04/22 10:41:02;;;;;;;;;0.00;0.00;;;;;;;;6208058;22;49581;-81
2023/04/22 10:43:47;;;;;;;;;0.00;0.00;;;;;;;;6207878;22;50042;-72
2023/04/22 10:46:35;;;;;;;;;1.00;1.00;;;;;;;;6235279;22;49663;-84
2023/04/22 10:49:11;;;;;;;;;0.00;0.00;;;;;;;;6235184;22;49970;-80
2023/04/22 10:51:37;;;;;;;;;0.00;0.00;;;;;;;;6235536;22;49783;-75
2023/04/22 10:54:02;;;;;;;;;0.00;0.00;;;;;;;;6207849;22;49899;-73
2023/04/22 10:56:27;;;;;;;;;0.00;0.00;;;;;;;;6234668;22;50039;-82
2023/04/22 10:58:54;;;;;;;;;1.00;1.00;;;;;;;;6236029;22;49846;-83
2023/04/22 11:01:20;;;;;;;;;8.00;6.25;;;;;;;;6235172;22;49660;-79
2023/04/22 11:03:45;;;;;;;;;0.00;0.00;;;;;;;;6236574;22;49559;-83
2023/04/22 11:06:17;;;;;;;;;0.00;0.00;;;;;;;;6234640;22;50484;-82
2023/04/22 11:08:43;;;;;;;;;0.00;0.00;;;;;;;;6234596;22;50038;-78
2023/04/22 11:11:09;;;;;;;;;0.00;0.00;;;;;;;;6236098;22;49928;-80
2023/04/22 11:13:35;;;;;;;;;0.00;0.00;;;;;;;;6235662;22;49880;-75
2023/04/22 11:16:01;;;;;;;;;0.00;0.00;;;;;;;;6232471;22;50314;-73
2023/04/22 11:18:26;;;;;;;;;9.00;9.00;;;;;;;;6234329;22;49965;-73
2023/04/22 11:20:52;;;;;;;;;0.00;0.00;;;;;;;;6234273;22;49730;-74
2023/04/22 11:23:27;;;;;;;;;0.25;0.25;;;;;;;;6233995;22;49631;-70
2023/04/22 11:25:55;;;;;;;;;0.75;0.75;;;;;;;;6231801;22;50776;-71
2023/04/22 11:28:21;;;;;;;;;0.00;0.00;;;;;;;;6233908;22;50052;-69
2023/04/22 11:30:47;;;;;;;;;0.00;0.00;;;;;;;;6233890;22;50081;-68
2023/04/22 11:33:13;;;;;;;;;0.00;0.00;;;;;;;;6234137;22;49634;-69
2023/04/22 11:35:38;;;;;;;;;0.00;0.00;;;;;;;;6233719;22;49641;-68
2023/04/22 11:38:05;;;;;;;;;0.00;0.00;;;;;;;;6232995;22;49599;-68
2023/04/22 11:40:34;;;;;;;;;0.75;0.25;;;;;;;;6232262;22;50185;-73
2023/04/22 11:43:00;;;;;;;;;6.25;4.50;;;;;;;;6231941;22;49693;-69
2023/04/22 11:45:26;;;;;;;;;0.00;0.00;;;;;;;;6233620;22;50399;-68
2023/04/22 11:47:51;;;;;;;;;0.00;0.00;;;;;;;;6233532;22;49729;-69
2023/04/22 11:50:19;;;;;;;;;0.00;0.00;;;;;;;;6231833;22;49689;-72
2023/04/22 11:52:44;;;;;;;;;6.00;1.00;;;;;;;;6234546;22;49532;-73
2023/04/22 11:55:10;;;;;;;;;0.00;0.00;;;;;;;;6234516;22;50368;-72
2023/04/22 11:57:36;;;;;;;;;0.00;0.00;;;;;;;;6235127;22;49996;-72
2023/04/22 12:00:01;;;;;;;;;1.75;1.00;;;;;;;;6235054;22;49697;-71
2023/04/22 12:02:26;;;;;;;;;0.00;0.00;;;;;;;;6235466;22;49964;-71
2023/04/22 12:04:51;;;;;;;;;3.00;3.00;;;;;;;;6233762;22;49973;-71
2023/04/22 12:07:17;;;;;;;;;0.00;0.00;;;;;;;;6233997;22;49940;-71
2023/04/22 12:09:42;;;;;;;;;0.00;0.00;;;;;;;;6234835;22;49933;-72
2023/04/22 12:12:07;;;;;;;;;0.00;0.00;;;;;;;;6234661;22;49888;-72
2023/04/22 12:14:33;;;;;;;;;3.33;3.33;;;;;;;;6235003;22;50569;-72
2023/04/22 12:17:02;;;;;;;;;3.00;3.00;;;;;;;;6235325;22;50143;-75
2023/04/22 12:19:27;;;;;;;;;0.00;0.00;;;;;;;;6234877;22;49773;-76
2023/04/22 12:21:55;;;;;;;;;0.00;0.00;;;;;;;;6235563;22;49579;-71
2023/04/22 12:24:26;;;;;;;;;0.00;0.00;;;;;;;;6234187;22;51693;-69
2023/04/22 12:26:51;;;;;;;;;6.75;6.75;;;;;;;;6233896;22;49962;-70
2023/04/22 12:29:16;;;;;;;;;0.00;0.00;;;;;;;;6234811;22;49992;-71
2023/04/22 12:31:41;;;;;;;;;0.00;0.00;;;;;;;;6234747;22;49965;-69
2023/04/22 12:34:06;;;;;;;;;3.00;1.00;;;;;;;;6235017;22;50538;-69
2023/04/22 12:36:32;;;;;;;;;0.00;0.00;;;;;;;;6235007;22;49864;-69
2023/04/22 12:38:57;;;;;;;;;0.00;0.00;;;;;;;;6233621;22;49776;-73
2023/04/22 12:41:22;;;;;;;;;0.00;0.00;;;;;;;;6235403;22;49589;-69
2023/04/22 12:43:47;;;;;;;;;0.00;0.00;;;;;;;;6234850;22;49756;-69
2023/04/22 12:46:13;;;;;;;;;0.00;0.00;;;;;;;;6234331;22;50044;-69
2023/04/22 12:48:38;;;;;;;;;0.00;0.00;;;;;;;;6207621;22;49812;-70
2023/04/22 12:51:04;;;;;;;;;0.00;0.00;;;;;;;;6232754;22;49889;-69
2023/04/22 12:53:29;;;;;;;;;0.00;0.00;;;;;;;;6234443;22;50429;-69
2023/04/22 12:55:56;;;;;;;;;0.00;0.00;;;;;;;;6233825;22;49669;-69
2023/04/22 12:58:21;;;;;;;;;0.00;0.00;;;;;;;;6234830;22;49738;-69
2023/04/22 13:00:46;;;;;;;;;0.00;0.00;;;;;;;;6233403;22;49911;-69
2023/04/22 13:03:11;;;;;;;;;0.00;0.00;;;;;;;;6234219;22;49869;-70
2023/04/22 13:05:38;;;;;;;;;0.25;0.25;;;;;;;;6234671;22;50034;-69
2023/04/22 13:08:03;;;;;;;;;0.00;0.00;;;;;;;;6233601;22;49742;-70
2023/04/22 13:10:29;;;;;;;;;0.00;0.00;;;;;;;;6235324;22;49999;-69
2023/04/22 13:12:54;;;;;;;;;0.00;0.00;;;;;;;;6234716;22;51115;-68
2023/04/22 13:15:20;;;;;;;;;0.00;0.00;;;;;;;;6234535;22;49979;-69
2023/04/22 13:17:45;;;;;;;;;0.00;0.00;;;;;;;;6234942;22;49576;-69
2023/04/22 13:20:12;;;;;;;;;0.00;0.00;;;;;;;;6234654;22;50007;-69
2023/04/22 13:22:39;;;;;;;;;0.00;0.00;;;;;;;;6234233;22;49709;-69
2023/04/22 13:25:05;;;;;;;;;0.00;0.00;;;;;;;;6234892;22;50152;-69
2023/04/22 13:27:30;;;;;;;;;0.00;0.00;;;;;;;;6233361;22;49768;-69
2023/04/22 13:29:56;;;;;;;;;0.00;0.00;;;;;;;;6207121;22;49951;-70
2023/04/22 13:32:21;;;;;;;;;0.00;0.00;;;;;;;;6233919;22;50549;-70
2023/04/22 13:34:47;;;;;;;;;1.00;1.00;;;;;;;;6234271;22;49964;-70
2023/04/22 13:37:14;;;;;;;;;0.00;0.00;;;;;;;;6206930;22;49794;-71
2023/04/22 13:39:39;;;;;;;;;0.00;0.00;;;;;;;;6234768;22;49696;-72
2023/04/22 13:42:04;;;;;;;;;0.00;0.00;;;;;;;;6234713;22;49950;-71
2023/04/22 13:44:30;;;;;;;;;0.00;0.00;;;;;;;;6233393;22;49727;-71
2023/04/22 13:46:55;;;;;;;;;0.00;0.00;;;;;;;;6206729;22;49657;-69
2023/04/22 13:49:20;;;;;;;;;0.00;0.00;;;;;;;;6234321;22;49965;-69
2023/04/22 13:51:45;;;;;;;;;0.00;0.00;;;;;;;;6232736;22;50034;-69
2023/04/22 13:54:10;;;;;;;;;0.00;0.00;;;;;;;;6233943;22;49967;-69
2023/04/22 13:56:36;;;;;;;;;0.00;0.00;;;;;;;;6234384;22;49779;-69
2023/04/22 13:59:01;;;;;;;;;2.25;2.25;;;;;;;;6233745;22;50057;-71
2023/04/22 14:01:26;;;;;;;;;0.00;0.00;;;;;;;;6233835;22;50400;-69
2023/04/22 14:03:52;;;;;;;;;0.00;0.00;;;;;;;;6233528;22;49789;-69
2023/04/22 14:06:17;;;;;;;;;3.00;3.00;;;;;;;;6206042;22;50006;-69
2023/04/22 14:08:43;;;;;;;;;0.00;0.00;;;;;;;;6233444;22;50020;-70
2023/04/22 14:11:08;;;;;;;;;0.00;0.00;;;;;;;;6233871;22;50547;-70
2023/04/22 14:13:34;;;;;;;;;0.00;0.00;;;;;;;;6233479;22;49602;-69
2023/04/22 14:16:01;;;;;;;;;0.00;0.00;;;;;;;;6235528;22;49675;-70
2023/04/22 14:18:26;;;;;;;;;0.00;0.00;;;;;;;;6234901;22;49626;-69
2023/04/22 14:20:51;;;;;;;;;0.00;0.00;;;;;;;;6233804;22;50638;-69
2023/04/22 14:23:17;;;;;;;;;0.00;0.00;;;;;;;;6234944;22;49867;-69
2023/04/22 14:25:44;;;;;;;;;0.00;0.00;;;;;;;;6234535;22;49644;-70
2023/04/22 14:28:10;;;;;;;;;0.00;0.00;;;;;;;;6234343;22;49974;-70
2023/04/22 14:30:35;;;;;;;;;0.00;0.00;;;;;;;;6234784;22;51199;-70
2023/04/22 14:33:01;;;;;;;;;0.00;0.00;;;;;;;;6235398;22;49972;-70
2023/04/22 14:35:26;;;;;;;;;0.00;0.00;;;;;;;;6233468;22;49963;-70
2023/04/22 14:37:51;;;;;;;;;0.00;0.00;;;;;;;;6235899;22;49965;-70
2023/04/22 14:40:18;;;;;;;;;0.00;0.00;;;;;;;;6234639;22;50613;-70
2023/04/22 14:42:44;;;;;;;;;0.00;0.00;;;;;;;;6234665;22;49719;-70
2023/04/22 14:45:09;;;;;;;;;0.00;0.00;;;;;;;;6234815;22;49624;-71
2023/04/22 14:47:34;;;;;;;;;0.00;0.00;;;;;;;;6235696;22;49586;-70
2023/04/22 14:50:00;;;;;;;;;0.00;0.00;;;;;;;;6234483;22;49782;-70
2023/04/22 14:52:25;;;;;;;;;0.00;0.00;;;;;;;;6234498;22;49567;-71
2023/04/22 14:54:50;;;;;;;;;0.75;0.75;;;;;;;;6234877;22;49718;-71
2023/04/22 14:57:15;;;;;;;;;0.00;0.00;;;;;;;;6235896;22;49995;-71
2023/04/22 14:59:40;;;;;;;;;0.00;0.00;;;;;;;;6234376;22;49961;-70
2023/04/22 15:02:14;;;;;;;;;0.00;0.00;;;;;;;;6233815;22;49675;-71
2023/04/22 15:04:40;;;;;;;;;0.00;0.00;;;;;;;;6233520;22;49697;-70
2023/04/22 15:07:05;;;;;;;;;0.00;0.00;;;;;;;;6235312;22;49896;-71
2023/04/22 15:09:31;;;;;;;;;0.00;0.00;;;;;;;;6234166;22;50562;-71
2023/04/22 15:11:58;;;;;;;;;0.00;0.00;;;;;;;;6234341;22;50056;-71
2023/04/22 15:14:23;;;;;;;;;0.00;0.00;;;;;;;;6234122;22;49579;-71
2023/04/22 15:16:48;;;;;;;;;0.00;0.00;;;;;;;;6235474;22;49616;-71
2023/04/22 15:19:14;;;;;;;;;0.00;0.00;;;;;;;;6234277;22;49891;-70
2023/04/22 15:21:39;;;;;;;;;0.00;0.00;;;;;;;;6234772;22;49951;-71
2023/04/22 15:24:04;;;;;;;;;0.00;0.00;;;;;;;;6233670;22;49800;-70
2023/04/22 15:26:29;;;;;;;;;0.00;0.00;;;;;;;;6234999;22;49609;-71
2023/04/22 15:28:54;;;;;;;;;0.00;0.00;;;;;;;;6235446;22;50266;-71
2023/04/22 15:31:20;;;;;;;;;0.00;0.00;;;;;;;;6234640;22;49680;-70
2023/04/22 15:33:45;;;;;;;;;0.00;0.00;;;;;;;;6234944;22;49982;-70
2023/04/22 15:36:10;;;;;;;;;0.00;0.00;;;;;;;;6233799;22;50362;-70
2023/04/22 15:38:37;;;;;;;;;0.00;0.00;;;;;;;;6234327;22;50533;-73
2023/04/22 15:41:03;;;;;;;;;0.00;0.00;;;;;;;;6235333;22;49976;-73
2023/04/22 15:43:28;;;;;;;;;0.00;0.00;;;;;;;;6235265;22;49619;-74
2023/04/22 15:45:56;;;;;;;;;0.00;0.00;;;;;;;;6235206;22;49830;-74
2023/04/22 15:48:21;;;;;;;;;0.00;0.00;;;;;;;;6233624;22;50337;-74
2023/04/22 15:50:46;;;;;;;;;2.67;0.00;;;;;;;;6235347;22;49952;-73
2023/04/22 15:53:11;;;;;;;;;0.00;0.00;;;;;;;;6235579;22;49885;-74
2023/04/22 15:55:36;;;;;;;;;0.00;0.00;;;;;;;;6235058;22;49995;-74
2023/04/22 15:58:02;;;;;;;;;0.00;0.00;;;;;;;;6234960;22;50786;-74
2023/04/22 16:00:27;;;;;;;;;0.00;0.00;;;;;;;;6235085;22;49842;-74
2023/04/22 16:02:55;;;;;;;;;0.00;0.00;;;;;;;;6233049;22;49655;-74
2023/04/22 16:05:23;;;;;;;;;0.00;0.00;;;;;;;;6235074;22;49658;-74
2023/04/22 16:07:49;;;;;;;;;0.00;0.00;;;;;;;;6233524;22;50719;-74
2023/04/22 16:10:14;;;;;;;;;0.00;0.00;;;;;;;;6202625;22;49983;-73
2023/04/22 16:12:40;;;;;;;;;0.00;0.00;;;;;;;;6228267;22;49896;-76
2023/04/22 16:15:06;;;;;;;;;0.00;0.00;;;;;;;;6232356;22;50055;-74
2023/04/22 16:17:31;;;;;;;;;0.00;0.00;;;;;;;;6231330;22;50421;-77
2023/04/22 16:19:57;;;;;;;;;0.00;0.00;;;;;;;;6232455;22;49625;-73
2023/04/22 16:22:22;;;;;;;;;0.00;0.00;;;;;;;;6232590;22;49787;-74
2023/04/22 16:24:47;;;;;;;;;0.00;0.00;;;;;;;;6231777;22;49935;-69
2023/04/22 16:27:15;;;;;;;;;0.00;0.00;;;;;;;;6232090;22;50248;-72
2023/04/22 16:29:40;;;;;;;;;0.00;0.00;;;;;;;;6230625;22;49974;-71
2023/04/22 16:32:05;;;;;;;;;0.00;0.00;;;;;;;;6231413;22;49713;-69
2023/04/22 16:34:30;;;;;;;;;0.00;0.00;;;;;;;;6230920;22;49999;-68
2023/04/22 16:36:55;;;;;;;;;0.00;0.00;;;;;;;;6233170;22;49684;-69
2023/04/22 16:39:21;;;;;;;;;0.00;0.00;;;;;;;;6231405;22;49919;-70
2023/04/22 16:41:46;;;;;;;;;0.00;0.00;;;;;;;;6231898;22;49739;-71
2023/04/22 16:44:11;;;;;;;;;0.00;0.00;;;;;;;;6231539;22;49986;-68
2023/04/22 16:46:36;;;;;;;;;0.00;0.00;;;;;;;;6231257;22;51118;-67
2023/04/22 16:49:01;;;;;;;;;0.00;0.00;;;;;;;;6231711;22;49729;-68
2023/04/22 16:51:27;;;;;;;;;0.33;0.33;;;;;;;;6232855;22;49630;-68
2023/04/22 16:53:52;;;;;;;;;0.00;0.00;;;;;;;;6234887;22;49900;-69
2023/04/22 16:56:17;;;;;;;;;0.00;0.00;;;;;;;;6234651;22;49843;-69
2023/04/22 16:58:42;;;;;;;;;0.00;0.00;;;;;;;;6234434;22;49961;-68
2023/04/22 17:01:08;;;;;;;;;0.00;0.00;;;;;;;;6233607;22;49695;-69
2023/04/22 17:03:33;;;;;;;;;0.00;0.00;;;;;;;;6234130;22;49912;-81
2023/04/22 17:05:58;;;;;;;;;0.00;0.00;;;;;;;;6234075;22;50322;-70
2023/04/22 17:08:23;;;;;;;;;0.00;0.00;;;;;;;;6233195;22;49821;-70
2023/04/22 17:10:51;;;;;;;;;0.00;0.00;;;;;;;;6234836;22;49547;-70
2023/04/22 17:13:16;;;;;;;;;0.00;0.00;;;;;;;;6234616;22;49654;-71
2023/04/22 17:15:41;;;;;;;;;0.00;0.00;;;;;;;;6234224;22;50549;-70
2023/04/22 17:18:06;;;;;;;;;0.00;0.00;;;;;;;;6234721;22;49630;-72
2023/04/22 17:20:33;;;;;;;;;0.00;0.00;;;;;;;;6233276;22;49620;-70
2023/04/22 17:22:58;;;;;;;;;0.00;0.00;;;;;;;;6232473;22;49918;-71
2023/04/22 17:25:23;;;;;;;;;0.00;0.00;;;;;;;;6234391;22;49912;-76
2023/04/22 17:27:48;;;;;;;;;0.00;0.00;;;;;;;;6234332;22;49505;-70
2023/04/22 17:30:14;;;;;;;;;0.00;0.00;;;;;;;;6233891;22;50184;-71
2023/04/22 17:32:39;;;;;;;;;0.00;0.00;;;;;;;;6233090;22;49841;-70
2023/04/22 17:35:05;;;;;;;;;0.00;0.00;;;;;;;;6233133;22;50226;-71
2023/04/22 17:37:30;;;;;;;;;0.00;0.00;;;;;;;;6232977;22;49615;-70
2023/04/22 17:39:55;;;;;;;;;0.00;0.00;;;;;;;;6234838;22;49788;-70
2023/04/22 17:42:20;;;;;;;;;0.00;0.00;;;;;;;;6233681;22;49905;-70
2023/04/22 17:44:45;;;;;;;;;0.00;0.00;;;;;;;;6232873;22;49767;-73
2023/04/22 17:47:11;;;;;;;;;3.00;3.00;;;;;;;;6234257;22;49891;-71
2023/04/22 17:49:36;;;;;;;;;0.00;0.00;;;;;;;;6234386;22;49791;-71
2023/04/22 17:52:01;;;;;;;;;0.00;0.00;;;;;;;;6233869;22;49942;-72
2023/04/22 17:54:26;;;;;;;;;0.00;0.00;;;;;;;;6233802;22;49652;-73
2023/04/22 17:56:51;;;;;;;;;0.00;0.00;;;;;;;;6234529;22;50041;-73
2023/04/22 17:59:17;;;;;;;;;0.50;0.00;;;;;;;;6232855;22;50066;-73
2023/04/22 18:01:42;;;;;;;;;0.00;0.00;;;;;;;;6205886;22;49615;-72
2023/04/22 18:04:08;;;;;;;;;0.50;0.50;;;;;;;;6233922;22;50404;-72
2023/04/22 18:06:33;;;;;;;;;0.00;0.00;;;;;;;;6234197;22;49990;-74
2023/04/22 18:08:58;;;;;;;;;0.00;0.00;;;;;;;;6234735;22;49781;-72
2023/04/22 18:11:23;;;;;;;;;0.00;0.00;;;;;;;;6234301;22;49902;-72
2023/04/22 18:13:48;;;;;;;;;0.25;0.00;;;;;;;;6233154;22;50292;-71
2023/04/22 18:16:14;;;;;;;;;0.00;0.00;;;;;;;;6233499;22;49987;-69
2023/04/22 18:18:39;;;;;;;;;3.00;1.00;;;;;;;;6232986;22;49622;-70
2023/04/22 18:21:04;;;;;;;;;0.00;0.00;;;;;;;;6234577;22;50093;-70
2023/04/22 18:23:29;;;;;;;;;0.00;0.00;;;;;;;;6233837;22;50313;-69
2023/04/22 18:25:55;;;;;;;;;1.00;1.00;;;;;;;;6233932;22;49668;-69
2023/04/22 18:28:20;;;;;;;;;0.00;0.00;;;;;;;;6232645;22;49648;-70
2023/04/22 18:30:45;;;;;;;;;0.00;0.00;;;;;;;;6233047;22;49882;-69
2023/04/22 18:33:11;;;;;;;;;0.00;0.00;;;;;;;;6233893;22;49919;-71
2023/04/22 18:35:36;;;;;;;;;0.00;0.00;;;;;;;;6233957;22;49824;-71
2023/04/22 18:38:01;;;;;;;;;0.00;0.00;;;;;;;;6234328;22;49910;-70
2023/04/22 18:40:26;;;;;;;;;0.00;0.00;;;;;;;;6234314;22;49983;-69
2023/04/22 18:42:51;;;;;;;;;0.00;0.00;;;;;;;;6233708;22;51045;-71
2023/04/22 18:45:17;;;;;;;;;0.00;0.00;;;;;;;;6233782;22;49645;-70
2023/04/22 18:47:44;;;;;;;;;0.00;0.00;;;;;;;;6204888;22;50141;-70
2023/04/22 18:50:09;;;;;;;;;1.00;0.00;;;;;;;;6231207;22;49649;-70
2023/04/22 18:52:34;;;;;;;;;0.00;0.00;;;;;;;;6233109;22;50360;-72
2023/04/22 18:55:00;;;;;;;;;0.00;0.00;;;;;;;;6234157;22;49983;-72
2023/04/22 18:57:25;;;;;;;;;0.00;0.00;;;;;;;;6232735;22;50122;-72
2023/04/22 18:59:50;;;;;;;;;0.00;0.00;;;;;;;;6234431;22;49623;-70
2023/04/22 19:02:15;;;;;;;;;0.00;0.00;;;;;;;;6206963;22;50700;-70
2023/04/22 19:04:41;;;;;;;;;0.00;0.00;;;;;;;;6234600;22;50112;-69
2023/04/22 19:07:06;;;;;;;;;0.00;0.00;;;;;;;;6234628;22;49679;-70
2023/04/22 19:09:31;;;;;;;;;0.00;0.00;;;;;;;;6207742;22;50282;-71
2023/04/22 19:11:57;;;;;;;;;0.00;0.00;;;;;;;;6234568;22;50262;-70
2023/04/22 19:14:22;;;;;;;;;0.00;0.00;;;;;;;;6235200;22;49670;-69
2023/04/22 19:16:47;;;;;;;;;0.00;0.00;;;;;;;;6234055;22;49601;-70
2023/04/22 19:19:13;;;;;;;;;0.00;0.00;;;;;;;;6234155;22;49919;-71
2023/04/22 19:21:38;;;;;;;;;1.00;1.00;;;;;;;;6234533;22;49700;-68
2023/04/22 19:24:03;;;;;;;;;0.00;0.00;;;;;;;;6235200;22;50123;-70
2023/04/22 19:26:29;;;;;;;;;0.00;0.00;;;;;;;;6234880;22;49682;-71
2023/04/22 19:28:55;;;;;;;;;0.00;0.00;;;;;;;;6235237;22;49907;-71
2023/04/22 19:31:20;;;;;;;;;0.00;0.00;;;;;;;;6234779;22;50572;-71
2023/04/22 19:33:45;;;;;;;;;0.00;0.00;;;;;;;;6234588;22;49528;-71
2023/04/22 19:36:10;;;;;;;;;0.00;0.00;;;;;;;;6234654;22;49578;-69
2023/04/22 19:38:36;;;;;;;;;19.75;19.75;;;;;;;;6235222;22;49785;-70
2023/04/22 19:41:01;;;;;;;;;0.00;0.00;;;;;;;;6234971;22;49971;-69
2023/04/22 19:43:26;;;;;;;;;0.00;0.00;;;;;;;;6234679;22;49721;-71
2023/04/22 19:45:54;;;;;;;;;0.00;0.00;;;;;;;;6234627;22;49681;-71
2023/04/22 19:48:20;;;;;;;;;0.00;0.00;;;;;;;;6234942;22;49964;-70
2023/04/22 19:50:46;;;;;;;;;0.00;0.00;;;;;;;;6234868;22;50417;-71
2023/04/22 19:53:12;;;;;;;;;0.00;0.00;;;;;;;;6233388;22;49938;-71
2023/04/22 19:55:37;;;;;;;;;0.00;0.00;;;;;;;;6234946;22;49705;-69
2023/04/22 19:58:03;;;;;;;;;0.00;0.00;;;;;;;;6235401;22;49884;-70
2023/04/22 20:00:30;;;;;;;;;0.00;0.00;;;;;;;;6234307;22;49712;-70
2023/04/22 20:02:56;;;;;;;;;0.00;0.00;;;;;;;;6233753;22;49642;-68
2023/04/22 20:05:21;;;;;;;;;0.00;0.00;;;;;;;;6234600;22;49708;-72
2023/04/22 20:07:48;;;;;;;;;0.00;0.00;;;;;;;;6234565;22;49536;-73
2023/04/22 20:10:13;;;;;;;;;1.00;1.00;;;;;;;;6234169;22;50375;-71
2023/04/22 20:12:39;;;;;;;;;0.00;0.00;;;;;;;;6233817;22;50003;-72
2023/04/22 20:15:04;;;;;;;;;0.00;0.00;;;;;;;;6234974;22;50008;-75
2023/04/22 20:17:34;;;;;;;;;0.00;0.00;;;;;;;;6235569;22;50147;-75
2023/04/22 20:20:03;;;;;;;;;0.00;0.00;;;;;;;;6233583;22;50470;-75
2023/04/22 20:22:29;;;;;;;;;0.00;0.00;;;;;;;;6228065;22;50108;-75
2023/04/22 20:25:01;;;;;;;;;0.00;0.00;;;;;;;;6234846;22;49880;-75
